Time;durP1;ratioP1;P1;durP2;ratioP2;P2;SDS_P1;SDS_P2;PMS_P1;PMS_P2;Temp;Humidity;BMP_temperature;BMP_pressure;BME280_temperature;BME280_humidity;BME280_pressure;Samples;Min_cycle;Max_cycle;Signal;HPM_P1;HPM_P2
2023/08/08 00:03:01;;;;;;;4.47;4.03;;;;;;;23.43;68.00;99714.88;10525152;28;20052;-75
2023/08/08 00:08:04;;;;;;;5.38;4.18;;;;;;;23.50;67.63;99718.88;10525674;28;20048;-75
2023/08/08 00:13:06;;;;;;;5.80;4.80;;;;;;;23.37;67.95;99730.41;10503152;28;20499;-75
2023/08/08 00:18:08;;;;;;;3.85;3.47;;;;;;;23.37;68.36;99743.59;10519226;28;20044;-75
2023/08/08 00:23:11;;;;;;;6.60;4.60;;;;;;;23.28;68.06;99724.34;10509933;28;20032;-75
2023/08/08 00:28:13;;;;;;;4.30;4.00;;;;;;;23.39;67.75;99739.22;10526835;28;20060;-75
2023/08/08 00:33:16;;;;;;;4.30;3.90;;;;;;;23.17;69.21;99724.25;10490840;28;20494;-75
2023/08/08 00:38:18;;;;;;;4.30;3.90;;;;;;;23.14;68.91;99725.03;10516559;28;20049;-75
2023/08/08 00:43:20;;;;;;;5.43;4.30;;;;;;;23.16;68.96;99711.47;10509041;28;20048;-75
2023/08/08 00:48:23;;;;;;;4.38;3.97;;;;;;;23.03;69.66;99734.53;10525728;28;20036;-75
2023/08/08 00:53:28;;;;;;;4.95;4.45;;;;;;;22.96;69.67;99726.91;10507324;28;20036;-75
2023/08/08 00:58:30;;;;;;;5.68;4.65;;;;;;;22.88;70.30;99710.44;10506786;28;20060;-75
2023/08/08 01:03:32;;;;;;;5.15;4.30;;;;;;;22.88;69.97;99725.22;10523009;28;20048;-75
2023/08/08 01:08:48;;;;;;;4.55;3.58;;;;;;;22.91;69.49;99706.84;10523515;28;20032;-75
2023/08/08 01:13:51;;;;;;;4.40;4.00;;;;;;;22.86;69.64;99713.63;10450949;28;20036;-75
2023/08/08 01:18:53;;;;;;;5.78;4.65;;;;;;;22.83;70.16;99686.41;10480127;28;20036;-75
2023/08/08 01:24:22;;;;;;;5.75;4.40;;;;;;;22.85;69.66;99698.03;10499654;28;20040;-75
2023/08/08 01:29:24;;;;;;;4.40;4.00;;;;;;;22.93;69.24;99694.09;10508969;28;20049;-75
2023/08/08 01:34:26;;;;;;;4.18;3.78;;;;;;;23.11;68.13;99680.25;10510930;28;20391;-75
2023/08/08 01:39:30;;;;;;;4.38;3.97;;;;;;;23.01;68.98;99664.19;10532954;28;20041;-75
2023/08/08 01:44:34;;;;;;;3.30;3.00;;;;;;;23.01;68.94;99648.19;10527570;28;20043;-75
2023/08/08 01:49:36;;;;;;;5.82;3.90;;;;;;;23.08;67.78;99653.84;10513983;28;20508;-75
2023/08/08 01:54:38;;;;;;;5.55;3.85;;;;;;;22.97;68.71;99652.16;10531918;28;20530;-75
2023/08/08 01:59:40;;;;;;;5.13;4.10;;;;;;;22.94;68.33;99652.94;10532472;28;20044;-75
2023/08/08 02:04:43;;;;;;;5.78;3.63;;;;;;;22.88;68.15;99644.09;10503193;28;20056;-75
2023/08/08 02:09:46;;;;;;;8.13;3.25;;;;;;;22.98;67.86;99654.56;10530471;28;20040;-75
2023/08/08 02:14:48;;;;;;;3.20;2.90;;;;;;;23.08;67.55;99644.63;10485683;28;20525;-75
2023/08/08 02:19:50;;;;;;;5.45;3.53;;;;;;;23.17;67.41;99634.69;10517200;28;20052;-75
2023/08/08 02:24:52;;;;;;;5.03;4.63;;;;;;;23.17;66.62;99640.31;10496291;28;20040;-75
2023/08/08 02:29:55;;;;;;;5.18;4.13;;;;;;;23.29;66.23;99646.78;10511756;28;20048;-75
2023/08/08 02:34:57;;;;;;;5.68;4.28;;;;;;;23.45;65.36;99644.47;10529374;28;20806;-75
2023/08/08 02:40:00;;;;;;;4.80;3.83;;;;;;;23.30;66.50;99631.59;10527013;28;20036;-75
2023/08/08 02:45:02;;;;;;;5.15;4.07;;;;;;;23.08;67.36;99625.88;10520579;28;20402;-75
2023/08/08 02:50:06;;;;;;;4.85;3.83;;;;;;;23.09;67.14;99610.69;10514130;28;20032;-75
2023/08/08 02:55:09;;;;;;;3.60;3.30;;;;;;;23.21;66.32;99628.31;10509252;28;20047;-75
2023/08/08 03:00:13;;;;;;;5.68;3.92;;;;;;;23.20;66.18;99619.13;10510721;28;20044;-75
2023/08/08 03:05:18;;;;;;;4.65;3.40;;;;;;;22.99;67.41;99605.81;10503258;28;20043;-75
2023/08/08 03:10:21;;;;;;;4.47;3.42;;;;;;;23.06;66.81;99622.63;10528080;28;20036;-75
2023/08/08 03:15:24;;;;;;;3.63;3.13;;;;;;;22.98;67.47;99618.19;10494154;28;20048;-75
2023/08/08 03:20:26;;;;;;;3.53;3.22;;;;;;;22.98;67.92;99623.00;10509360;28;20044;-75
2023/08/08 03:25:29;;;;;;;4.93;3.83;;;;;;;22.89;68.27;99633.69;10474280;28;20430;-75
2023/08/08 03:30:31;;;;;;;5.88;3.78;;;;;;;23.19;66.39;99630.72;10476128;28;20041;-75
2023/08/08 03:35:34;;;;;;;4.95;4.13;;;;;;;23.01;67.90;99639.00;10493150;28;20059;-75
2023/08/08 03:40:37;;;;;;;6.60;4.40;;;;;;;23.38;65.65;99631.22;10505280;28;20552;-75
2023/08/08 03:45:40;;;;;;;6.75;4.22;;;;;;;23.09;67.96;99630.28;10482559;28;20502;-75
2023/08/08 03:50:42;;;;;;;6.88;4.00;;;;;;;22.93;67.77;99624.16;10512439;28;20032;-75
2023/08/08 03:55:45;;;;;;;4.90;3.65;;;;;;;22.99;67.78;99628.19;10514559;28;20044;-75
2023/08/08 04:00:47;;;;;;;5.68;4.00;;;;;;;23.15;67.75;99634.28;10506827;28;20049;-75
2023/08/08 04:05:49;;;;;;;5.55;4.40;;;;;;;23.07;67.61;99666.22;10509407;28;20051;-75
2023/08/08 04:10:52;;;;;;;4.40;4.00;;;;;;;22.78;68.14;99628.81;10485053;28;20406;-75
2023/08/08 04:15:54;;;;;;;5.35;3.97;;;;;;;22.80;67.65;99615.25;10465577;28;20059;-75
2023/08/08 04:20:56;;;;;;;3.42;2.47;;;;;;;22.78;68.94;99614.84;10472581;28;20048;-76
2023/08/08 04:25:58;;;;;;;5.18;3.83;;;;;;;22.76;69.01;99624.81;10507311;28;20048;-76
2023/08/08 04:31:01;;;;;;;6.38;4.25;;;;;;;22.84;67.97;99618.88;10515117;28;20071;-76
2023/08/08 04:36:03;;;;;;;4.82;4.22;;;;;;;22.85;68.37;99622.50;10526588;28;20032;-75
2023/08/08 04:41:05;;;;;;;9.25;3.55;;;;;;;22.95;68.54;99621.78;10491758;28;20040;-75
2023/08/08 04:46:07;;;;;;;5.55;4.07;;;;;;;22.86;68.41;99640.88;10508139;28;20044;-76
2023/08/08 04:51:09;;;;;;;6.85;4.00;;;;;;;22.84;67.64;99651.66;10511837;28;20510;-76
2023/08/08 04:56:12;;;;;;;3.53;3.20;;;;;;;22.86;67.85;99646.47;10532469;28;20048;-76
2023/08/08 05:01:15;;;;;;;4.82;3.72;;;;;;;23.10;67.83;99659.84;10507013;28;20060;-76
2023/08/08 05:06:17;;;;;;;4.00;3.60;;;;;;;23.12;67.22;99660.28;10532763;28;20044;-75
2023/08/08 05:11:20;;;;;;;5.40;3.30;;;;;;;22.95;66.82;99640.56;10499558;28;20041;-74
2023/08/08 05:16:22;;;;;;;5.22;3.15;;;;;;;23.09;67.42;99658.25;10497421;28;20047;-75
2023/08/08 05:21:25;;;;;;;5.28;3.55;;;;;;;23.15;66.58;99679.06;10509636;28;20061;-75
2023/08/08 05:26:27;;;;;;;4.00;3.70;;;;;;;23.07;67.58;99669.00;10512683;28;20503;-75
2023/08/08 05:31:29;;;;;;;7.47;3.15;;;;;;;23.00;66.73;99682.97;10495349;28;20040;-75
2023/08/08 05:36:31;;;;;;;4.18;3.78;;;;;;;22.38;71.94;99712.72;10531276;28;20052;-75
2023/08/08 05:41:33;;;;;;;5.15;3.83;;;;;;;21.47;78.66;99727.91;10531199;28;20033;-74
2023/08/08 05:46:35;;;;;;;7.45;3.67;;;;;;;20.65;84.27;99743.25;10477023;28;20053;-74
2023/08/08 05:51:39;;;;;;;4.72;4.00;;;;;;;20.31;88.03;99731.06;10491970;28;20036;-75
2023/08/08 05:56:41;;;;;;;5.03;4.05;;;;;;;19.88;91.60;99738.56;10529248;28;20071;-75
2023/08/08 06:01:44;;;;;;;5.68;3.95;;;;;;;19.83;93.35;99752.78;10495129;28;20048;-75
2023/08/08 06:06:48;;;;;;;4.45;3.50;;;;;;;19.89;92.94;99740.16;10512186;28;20055;-74
2023/08/08 06:11:51;;;;;;;4.15;3.75;;;;;;;19.95;92.69;99757.38;10531012;28;20044;-74
2023/08/08 06:16:53;;;;;;;5.18;4.38;;;;;;;19.97;91.88;99746.69;10524079;28;20048;-75
2023/08/08 06:21:55;;;;;;;7.10;5.82;;;;;;;19.93;93.38;99745.81;10530523;28;20044;-74
2023/08/08 06:26:57;;;;;;;5.95;4.70;;;;;;;20.55;91.97;99747.47;10513093;28;20044;-75
2023/08/08 06:31:59;;;;;;;4.97;4.25;;;;;;;21.45;86.25;99747.81;10470302;28;20565;-75
2023/08/08 06:37:02;;;;;;;5.03;4.28;;;;;;;21.69;82.59;99760.53;10490337;28;20048;-73
2023/08/08 06:42:04;;;;;;;5.10;4.60;;;;;;;21.22;85.54;99778.53;10529916;28;20502;-75
2023/08/08 06:47:14;;;;;;;6.40;5.13;;;;;;;21.01;86.76;99789.34;10511424;28;20046;-77
2023/08/08 06:52:16;;;;;;;4.53;4.05;;;;;;;21.18;86.07;99788.03;10528858;28;20509;-74
2023/08/08 06:57:19;;;;;;;8.50;5.07;;;;;;;21.68;83.55;99790.44;10524469;28;20040;-74
2023/08/08 07:02:21;;;;;;;8.27;5.40;;;;;;;21.38;84.58;99780.41;10528338;28;20076;-74
2023/08/08 07:07:23;;;;;;;6.63;4.88;;;;;;;21.96;81.57;99794.81;10529475;28;20055;-74
2023/08/08 07:12:25;;;;;;;4.82;4.32;;;;;;;23.14;76.26;99811.81;10517151;28;20511;-76
2023/08/08 07:17:27;;;;;;;6.78;4.15;;;;;;;22.49;77.51;99823.47;10513377;28;20043;-76
2023/08/08 07:22:29;;;;;;;5.65;4.93;;;;;;;22.34;78.42;99818.91;10528353;28;20499;-76
2023/08/08 07:27:32;;;;;;;8.05;5.07;;;;;;;23.66;75.09;99829.47;10507766;28;20039;-76
2023/08/08 07:32:34;;;;;;;5.47;4.97;;;;;;;24.47;68.43;99839.56;10522790;28;20036;-76
2023/08/08 07:37:36;;;;;;;5.30;4.35;;;;;;;23.39;71.54;99839.19;10500887;28;20040;-75
2023/08/08 07:42:38;;;;;;;5.68;4.60;;;;;;;23.10;71.87;99840.97;10520636;28;20499;-75
2023/08/08 07:47:41;;;;;;;6.07;4.50;;;;;;;22.85;73.12;99851.88;10485938;28;20047;-73
2023/08/08 07:52:43;;;;;;;7.43;4.43;;;;;;;22.48;74.26;99833.06;10526914;28;20032;-73
2023/08/08 07:57:45;;;;;;;7.53;4.78;;;;;;;22.48;74.17;99829.44;10527121;28;20053;-74
2023/08/08 08:02:48;;;;;;;7.40;4.10;;;;;;;22.50;74.64;99836.28;10495722;28;20130;-73
2023/08/08 08:07:50;;;;;;;5.68;4.47;;;;;;;22.50;74.05;99830.69;10524402;28;20320;-72
2023/08/08 08:12:57;;;;;;;7.95;3.72;;;;;;;23.22;71.14;99839.84;10505958;28;20036;-70
2023/08/08 08:18:00;;;;;;;4.15;3.60;;;;;;;26.02;59.87;99842.16;10467986;28;20091;-73
2023/08/08 08:23:02;;;;;;;8.40;3.25;;;;;;;24.85;62.64;99852.13;10504303;28;20040;-73
2023/08/08 08:28:04;;;;;;;4.85;3.38;;;;;;;24.77;62.24;99849.66;10512516;28;20037;-71
2023/08/08 08:33:07;;;;;;;3.78;3.25;;;;;;;25.94;58.54;99861.03;10511620;28;20036;-71
2023/08/08 08:38:10;;;;;;;6.38;3.90;;;;;;;25.31;62.28;99870.25;10533943;28;20403;-72
2023/08/08 08:43:13;;;;;;;4.35;3.80;;;;;;;24.77;63.50;99886.94;10526731;28;20041;-72
2023/08/08 08:48:16;;;;;;;3.58;3.25;;;;;;;23.67;65.86;99889.88;10505801;28;20044;-72
2023/08/08 08:53:19;;;;;;;3.65;2.90;;;;;;;24.11;65.46;99913.41;10512653;28;20045;-72
2023/08/08 08:58:21;;;;;;;1.85;1.67;;;;;;;23.67;64.38;99923.50;10501308;28;20056;-72
2023/08/08 09:03:24;;;;;;;2.33;1.73;;;;;;;24.64;60.34;99944.59;10503229;28;20502;-72
2023/08/08 09:08:29;;;;;;;2.78;1.30;;;;;;;25.67;56.77;99952.56;10499097;28;20072;-72
2023/08/08 09:13:40;;;;;;;2.13;1.67;;;;;;;27.54;51.53;99958.13;10506222;28;20040;-75
2023/08/08 09:18:43;;;;;;;3.53;1.73;;;;;;;25.90;55.30;99958.66;10517034;28;20501;-75
2023/08/08 09:23:45;;;;;;;4.82;1.80;;;;;;;25.63;56.85;99965.81;10534349;28;20064;-75
2023/08/08 09:28:47;;;;;;;2.22;2.00;;;;;;;25.14;58.31;99967.28;10520906;28;20521;-75
2023/08/08 09:33:51;;;;;;;2.40;1.60;;;;;;;24.86;58.96;99982.00;10499445;28;20057;-73
2023/08/08 09:38:55;;;;;;;2.30;1.55;;;;;;;25.27;57.78;99987.41;10508987;28;20040;-74
2023/08/08 09:43:58;;;;;;;1.83;1.50;;;;;;;25.11;57.76;99990.56;10512963;28;20048;-74
2023/08/08 09:49:01;;;;;;;1.52;1.40;;;;;;;24.73;57.56;100012.41;10495776;28;20419;-74
2023/08/08 09:54:06;;;;;;;1.40;1.10;;;;;;;24.14;58.38;100022.78;10493419;28;20037;-78
2023/08/08 09:59:09;;;;;;;2.72;1.13;;;;;;;24.25;58.39;100014.44;10502241;28;20053;-73
2023/08/08 10:04:12;;;;;;;1.20;1.10;;;;;;;24.75;55.55;100028.84;10526004;28;22394;-73
2023/08/08 10:09:16;;;;;;;3.80;0.88;;;;;;;24.55;54.41;100031.94;10530372;28;20051;-73
2023/08/08 10:14:18;;;;;;;0.90;0.80;;;;;;;24.60;53.33;100022.34;10500045;28;20040;-73
2023/08/08 10:19:25;;;;;;;1.23;0.77;;;;;;;24.32;54.17;100020.16;10524169;28;20055;-72
2023/08/08 10:24:35;;;;;;;1.15;0.88;;;;;;;24.65;52.44;100027.59;10528415;28;20044;-71
2023/08/08 10:29:38;;;;;;;4.00;0.80;;;;;;;24.16;53.05;100037.22;10502586;28;20048;-72
2023/08/08 10:34:44;;;;;;;1.15;0.75;;;;;;;24.19;53.25;100038.44;10530614;28;20040;-71
2023/08/08 10:40:05;;;;;;;4.32;1.00;;;;;;;24.10;53.05;100058.38;10528621;28;20049;-72
2023/08/08 10:45:11;;;;;;;0.80;0.80;;;;;;;24.46;52.50;100059.50;10508856;28;20040;-73
2023/08/08 10:50:14;;;;;;;0.50;0.50;;;;;;;24.43;52.24;100062.28;10523458;28;20036;-73
2023/08/08 10:55:26;;;;;;;1.88;0.60;;;;;;;24.33;53.23;100064.63;10511581;28;20066;-73
2023/08/08 11:00:30;;;;;;;1.05;0.80;;;;;;;24.48;52.89;100064.75;10530344;28;20055;-73
2023/08/08 11:05:34;;;;;;;0.70;0.50;;;;;;;24.10;53.10;100065.97;10512167;28;20048;-73
2023/08/08 11:10:38;;;;;;;0.90;0.68;;;;;;;23.99;52.62;100077.09;10495769;28;20049;-73
2023/08/08 11:15:41;;;;;;;0.70;0.70;;;;;;;24.07;51.92;100084.38;10511731;28;20407;-73
2023/08/08 11:20:44;;;;;;;0.90;0.50;;;;;;;23.93;51.91;100103.84;10529348;28;20036;-73
2023/08/08 11:25:46;;;;;;;0.80;0.60;;;;;;;23.78;51.19;100100.13;10532953;28;20047;-73
2023/08/08 11:30:50;;;;;;;0.60;0.60;;;;;;;23.80;51.73;100108.94;10526560;28;20422;-73
2023/08/08 11:35:52;;;;;;;1.20;0.60;;;;;;;23.98;50.61;100114.72;10506679;28;20067;-73
2023/08/08 11:40:55;;;;;;;0.70;0.47;;;;;;;23.87;49.96;100108.19;10510805;28;20041;-73
2023/08/08 11:46:00;;;;;;;0.57;0.55;;;;;;;23.75;50.78;100124.06;10493647;28;20574;-73
2023/08/08 11:51:06;;;;;;;0.60;0.43;;;;;;;24.08;51.50;100121.63;10531606;28;20411;-73
2023/08/08 11:56:08;;;;;;;0.57;0.57;;;;;;;24.38;50.36;100113.13;10493877;28;20521;-73
2023/08/08 12:01:13;;;;;;;0.90;0.52;;;;;;;24.26;49.71;100128.22;10510066;28;20055;-73
2023/08/08 12:06:16;;;;;;;2.47;1.02;;;;;;;24.44;48.49;100131.22;10510627;28;20051;-73
2023/08/08 12:11:19;;;;;;;1.02;0.60;;;;;;;24.38;48.50;100143.97;10512569;28;20049;-73
2023/08/08 12:16:21;;;;;;;0.80;0.70;;;;;;;24.65;48.38;100139.81;10527335;28;20040;-73
2023/08/08 12:21:23;;;;;;;0.55;0.50;;;;;;;24.81;47.25;100151.56;10514611;28;20051;-73
2023/08/08 12:26:25;;;;;;;0.60;0.40;;;;;;;24.50;47.10;100152.13;10526867;28;20041;-73
2023/08/08 12:31:28;;;;;;;1.85;0.57;;;;;;;24.32;47.19;100165.97;10527253;28;20131;-73
2023/08/08 12:36:30;;;;;;;0.60;0.40;;;;;;;24.17;48.13;100167.78;10495861;28;20039;-73
2023/08/08 12:41:32;;;;;;;0.45;0.35;;;;;;;24.51;47.30;100156.53;10508948;28;20557;-73
2023/08/08 12:46:35;;;;;;;0.50;0.50;;;;;;;24.19;47.07;100159.00;10526230;28;20060;-73
2023/08/08 12:51:37;;;;;;;0.60;0.60;;;;;;;24.07;48.15;100174.06;10526840;28;20495;-73
2023/08/08 12:56:39;;;;;;;1.05;0.70;;;;;;;24.18;48.43;100168.59;10508974;28;20060;-73
2023/08/08 13:01:41;;;;;;;0.50;0.50;;;;;;;24.64;47.78;100185.88;10522908;28;20410;-73
2023/08/08 13:06:43;;;;;;;0.57;0.50;;;;;;;24.78;46.97;100177.59;10524394;28;20560;-73
2023/08/08 13:11:46;;;;;;;1.33;0.60;;;;;;;24.62;47.06;100172.25;10528836;28;20048;-73
2023/08/08 13:16:48;;;;;;;3.42;1.02;;;;;;;24.56;47.95;100176.59;10534088;28;20063;-73
2023/08/08 13:21:52;;;;;;;0.68;0.43;;;;;;;24.46;47.16;100182.09;10548316;28;20055;-73
2023/08/08 13:26:54;;;;;;;0.55;0.50;;;;;;;24.63;46.88;100195.50;10575297;28;20047;-73
2023/08/08 13:31:56;;;;;;;0.50;0.40;;;;;;;24.44;46.92;100187.31;10575705;28;20040;-73
2023/08/08 13:36:58;;;;;;;0.70;0.60;;;;;;;24.65;47.07;100196.75;10571968;28;20036;-73
2023/08/08 13:42:00;;;;;;;1.05;0.70;;;;;;;24.67;47.76;100204.78;10531205;28;20044;-73
2023/08/08 13:47:04;;;;;;;3.40;0.82;;;;;;;24.62;47.77;100207.91;10514863;28;20540;-73
2023/08/08 13:52:06;;;;;;;2.60;0.70;;;;;;;24.31;47.56;100226.88;10533130;28;20036;-73
2023/08/08 13:57:08;;;;;;;1.90;1.75;;;;;;;24.50;48.05;100223.06;10497997;28;20064;-73
2023/08/08 14:02:10;;;;;;;1.45;0.70;;;;;;;24.06;48.54;100225.72;10533258;28;20044;-73
2023/08/08 14:07:12;;;;;;;0.50;0.40;;;;;;;24.23;48.58;100233.53;10532281;28;20064;-73
2023/08/08 14:12:15;;;;;;;1.42;0.70;;;;;;;24.40;48.94;100226.53;10532381;28;20044;-73
2023/08/08 14:17:17;;;;;;;1.13;0.70;;;;;;;24.46;47.44;100218.56;10532235;28;20048;-73
2023/08/08 14:22:19;;;;;;;2.30;0.90;;;;;;;24.44;47.09;100232.19;10528462;28;20044;-73
2023/08/08 14:27:21;;;;;;;1.50;0.50;;;;;;;24.31;47.00;100234.47;10532223;28;20067;-73
2023/08/08 14:32:24;;;;;;;1.20;0.40;;;;;;;24.31;46.77;100242.88;10531751;28;20032;-73
2023/08/08 14:37:26;;;;;;;1.02;0.25;;;;;;;24.24;46.49;100237.16;10520084;28;20057;-73
2023/08/08 14:42:28;;;;;;;0.55;0.50;;;;;;;24.24;47.32;100245.56;10531019;28;20553;-73
2023/08/08 14:47:31;;;;;;;2.08;0.55;;;;;;;24.28;48.93;100250.00;10513039;28;20041;-73
2023/08/08 14:52:33;;;;;;;0.85;0.70;;;;;;;24.03;48.96;100257.31;10530713;28;20045;-73
2023/08/08 14:57:35;;;;;;;0.73;0.50;;;;;;;23.73;49.15;100265.72;10514108;28;20051;-73
2023/08/08 15:02:37;;;;;;;0.75;0.52;;;;;;;23.77;49.08;100278.59;10529865;28;20044;-73
2023/08/08 15:07:40;;;;;;;1.65;0.50;;;;;;;23.83;49.08;100283.91;10529828;28;20132;-73
2023/08/08 15:12:43;;;;;;;1.63;0.55;;;;;;;24.07;47.76;100283.41;10514412;28;20515;-73
2023/08/08 15:17:45;;;;;;;1.30;0.35;;;;;;;23.85;48.01;100282.31;10529789;28;20037;-73
2023/08/08 15:22:48;;;;;;;0.73;0.55;;;;;;;24.10;47.41;100282.63;10511592;28;20151;-73
2023/08/08 15:27:50;;;;;;;0.40;0.40;;;;;;;23.78;47.97;100285.03;10529207;28;20051;-73
2023/08/08 15:32:53;;;;;;;0.50;0.50;;;;;;;23.47;48.09;100291.75;10532336;28;20407;-74
2023/08/08 15:37:55;;;;;;;0.93;0.52;;;;;;;23.39;48.04;100295.59;10514189;28;20047;-73
2023/08/08 15:42:57;;;;;;;0.70;0.70;;;;;;;23.44;47.57;100295.31;10528123;28;20491;-73
2023/08/08 15:48:00;;;;;;;0.47;0.47;;;;;;;23.63;47.85;100306.44;10514710;28;20037;-73
2023/08/08 15:53:04;;;;;;;0.82;0.60;;;;;;;23.41;48.28;100310.84;10528558;28;20041;-73
2023/08/08 15:58:07;;;;;;;0.60;0.60;;;;;;;23.22;47.98;100312.94;10528320;28;20525;-73
2023/08/08 16:03:09;;;;;;;0.75;0.57;;;;;;;23.43;47.41;100318.91;10527795;28;20057;-73
2023/08/08 16:08:12;;;;;;;0.68;0.60;;;;;;;23.65;48.09;100315.25;10527716;28;20036;-73
2023/08/08 16:13:14;;;;;;;0.45;0.40;;;;;;;23.62;47.14;100329.22;10547199;28;20414;-74
2023/08/08 16:18:16;;;;;;;0.65;0.60;;;;;;;23.77;47.36;100331.84;10569803;28;20056;-73
2023/08/08 16:23:18;;;;;;;1.50;0.60;;;;;;;23.67;45.72;100337.28;10531849;28;20045;-73
2023/08/08 16:28:20;;;;;;;1.15;0.50;;;;;;;23.34;45.71;100338.75;10527220;28;20037;-73
2023/08/08 16:33:22;;;;;;;0.73;0.60;;;;;;;22.98;46.95;100354.13;10509272;28;20044;-73
2023/08/08 16:38:25;;;;;;;0.70;0.50;;;;;;;23.01;48.12;100358.97;10527631;28;20041;-73
2023/08/08 16:43:31;;;;;;;0.50;0.50;;;;;;;23.00;47.42;100362.94;10527635;28;20048;-73
2023/08/08 16:48:33;;;;;;;0.50;0.50;;;;;;;22.93;47.91;100367.63;10515696;28;20040;-73
2023/08/08 16:53:35;;;;;;;0.70;0.70;;;;;;;22.78;48.16;100372.09;10518051;28;20049;-73
2023/08/08 16:58:39;;;;;;;0.88;0.65;;;;;;;22.53;49.33;100380.78;10545002;28;20051;-73
2023/08/08 17:03:41;;;;;;;0.95;0.70;;;;;;;22.45;51.08;100393.00;10577098;28;20521;-73
2023/08/08 17:08:45;;;;;;;0.95;0.85;;;;;;;22.32;51.29;100393.50;10577551;28;20040;-73
2023/08/08 17:13:48;;;;;;;1.20;0.90;;;;;;;22.13;51.97;100395.09;10576899;28;20036;-73
2023/08/08 17:18:52;;;;;;;0.70;0.70;;;;;;;21.94;53.52;100404.22;10576395;28;20051;-73
2023/08/08 17:23:54;;;;;;;2.05;0.70;;;;;;;21.94;53.18;100412.59;10576303;28;20036;-73
2023/08/08 17:28:57;;;;;;;2.35;0.73;;;;;;;21.98;52.90;100419.06;10576074;28;20036;-73
2023/08/08 17:33:59;;;;;;;1.50;1.00;;;;;;;21.86;52.29;100433.16;10544854;28;20056;-73
2023/08/08 17:39:02;;;;;;;1.95;0.80;;;;;;;21.63;51.08;100437.78;10531112;28;20561;-73
2023/08/08 17:44:04;;;;;;;1.95;0.70;;;;;;;21.49;50.99;100454.16;10532363;28;20059;-73
2023/08/08 17:49:07;;;;;;;0.80;0.80;;;;;;;21.53;51.52;100449.50;10534308;28;20037;-73
2023/08/08 17:54:09;;;;;;;1.50;0.80;;;;;;;21.38;51.43;100461.44;10532809;28;20055;-73
2023/08/08 17:59:13;;;;;;;0.85;0.68;;;;;;;21.43;50.81;100463.97;10531499;28;20040;-73
2023/08/08 18:04:15;;;;;;;1.95;0.65;;;;;;;21.38;50.32;100462.25;10532451;28;20052;-73
2023/08/08 18:09:17;;;;;;;0.60;0.60;;;;;;;21.38;51.45;100467.03;10530054;28;20632;-73
2023/08/08 18:14:20;;;;;;;2.13;0.70;;;;;;;21.13;52.19;100475.50;10531542;28;20064;-73
2023/08/08 18:19:22;;;;;;;1.20;0.70;;;;;;;21.04;52.06;100464.50;10531959;28;20410;-73
2023/08/08 18:24:24;;;;;;;0.70;0.63;;;;;;;20.98;52.32;100474.28;10532014;28;20448;-73
2023/08/08 18:29:27;;;;;;;0.82;0.60;;;;;;;21.11;52.87;100482.59;10532042;28;20043;-73
2023/08/08 18:34:29;;;;;;;1.15;0.77;;;;;;;21.03;52.86;100478.81;10531630;28;20517;-73
2023/08/08 18:39:31;;;;;;;1.65;0.90;;;;;;;20.91;54.03;100484.44;10531277;28;20045;-73
2023/08/08 18:44:33;;;;;;;1.10;0.98;;;;;;;20.78;54.98;100480.88;10530941;28;20646;-73
2023/08/08 18:49:36;;;;;;;4.07;1.05;;;;;;;20.55;55.76;100496.50;10531576;28;20040;-73
2023/08/08 18:54:38;;;;;;;0.70;0.65;;;;;;;20.91;54.80;100496.41;10530243;28;20048;-73
2023/08/08 18:59:40;;;;;;;2.90;0.90;;;;;;;20.78;55.41;100503.19;10534306;28;20498;-73
2023/08/08 19:04:43;;;;;;;1.73;0.90;;;;;;;20.74;56.12;100499.47;10530063;28;20044;-73
2023/08/08 19:09:45;;;;;;;1.65;0.80;;;;;;;20.75;55.96;100506.69;10529298;28;20055;-73
2023/08/08 19:14:47;;;;;;;2.05;0.85;;;;;;;20.69;56.77;100508.91;10530173;28;20502;-73
2023/08/08 19:19:50;;;;;;;1.70;1.00;;;;;;;20.82;56.44;100508.84;10529651;28;20564;-73
2023/08/08 19:24:55;;;;;;;1.00;0.90;;;;;;;20.83;55.86;100516.09;10512131;28;20049;-73
2023/08/08 19:29:57;;;;;;;1.60;1.00;;;;;;;20.68;56.88;100517.63;10526776;28;20047;-73
2023/08/08 19:35:00;;;;;;;4.50;1.40;;;;;;;20.77;56.78;100516.31;10528329;28;20090;-73
2023/08/08 19:40:02;;;;;;;1.90;1.27;;;;;;;20.76;56.68;100520.28;10528915;28;20502;-73
2023/08/08 19:45:06;;;;;;;2.63;1.13;;;;;;;20.80;56.93;100519.56;10510925;28;20055;-73
2023/08/08 19:50:08;;;;;;;2.42;1.05;;;;;;;20.60;57.97;100527.75;10528615;28;20047;-73
2023/08/08 19:55:11;;;;;;;2.60;1.05;;;;;;;20.57;58.09;100530.44;10528495;28;20056;-73
2023/08/08 20:00:14;;;;;;;1.25;0.88;;;;;;;20.75;57.16;100537.34;10531190;28;20049;-73
2023/08/08 20:05:16;;;;;;;2.08;1.10;;;;;;;20.50;58.01;100541.38;10527193;28;20052;-73
2023/08/08 20:10:19;;;;;;;1.35;0.77;;;;;;;20.62;57.50;100536.56;10517056;28;20066;-73
2023/08/08 20:15:21;;;;;;;2.85;1.00;;;;;;;20.54;58.39;100550.66;10521223;28;20040;-73
2023/08/08 20:20:23;;;;;;;1.90;1.13;;;;;;;20.49;58.20;100548.91;10523704;28;20051;-75
2023/08/08 20:25:26;;;;;;;2.70;1.35;;;;;;;20.48;58.50;100550.06;10524764;28;20048;-75
2023/08/08 20:30:28;;;;;;;4.00;1.30;;;;;;;20.14;59.06;100541.00;10526937;28;20507;-74
2023/08/08 20:35:31;;;;;;;2.10;1.17;;;;;;;20.30;59.10;100552.25;10525085;28;20052;-74
2023/08/08 20:40:35;;;;;;;1.63;1.20;;;;;;;20.37;58.96;100555.28;10524093;28;20510;-74
2023/08/08 20:45:37;;;;;;;3.30;1.40;;;;;;;20.37;59.24;100560.03;10519698;28;20542;-74
2023/08/08 20:50:40;;;;;;;3.58;1.50;;;;;;;20.00;59.75;100571.16;10523744;28;20044;-75
2023/08/08 20:55:42;;;;;;;2.13;1.23;;;;;;;19.99;60.53;100566.75;10499956;28;20049;-75
2023/08/08 21:00:44;;;;;;;2.05;1.10;;;;;;;20.31;60.36;100575.38;10543430;28;20143;-74
2023/08/08 21:05:46;;;;;;;1.13;1.02;;;;;;;20.21;60.01;100578.59;10513480;28;20044;-75
2023/08/08 21:10:48;;;;;;;2.90;1.20;;;;;;;20.09;60.95;100580.22;10542829;28;20039;-74
2023/08/08 21:15:50;;;;;;;1.17;0.98;;;;;;;19.78;62.16;100577.94;10546833;28;20044;-75
2023/08/08 21:20:53;;;;;;;1.15;0.93;;;;;;;19.63;63.02;100577.81;10527023;28;20044;-74
2023/08/08 21:25:55;;;;;;;1.30;1.17;;;;;;;19.60;62.79;100579.28;10526467;28;20400;-73
2023/08/08 21:30:57;;;;;;;1.40;1.10;;;;;;;19.74;62.36;100584.56;10568066;28;20044;-74
2023/08/08 21:36:05;;;;;;;1.10;1.00;;;;;;;19.66;63.07;100579.91;10548929;28;20032;-73
2023/08/08 21:41:07;;;;;;;;;;;;;;;19.43;63.64;100594.16;10532413;28;20561;-73
2023/08/08 21:46:09;;;;;;;1.55;1.00;;;;;;;19.52;64.15;100596.88;10532207;28;19928;-74
2023/08/08 21:51:12;;;;;;;2.00;1.30;;;;;;;19.70;63.15;100589.19;10514001;28;20048;-73
2023/08/08 21:56:15;;;;;;;3.17;1.63;;;;;;;19.53;64.37;100596.53;10487096;28;20045;-74
2023/08/08 22:01:17;;;;;;;4.20;1.25;;;;;;;19.88;63.16;100599.81;10513346;28;20032;-73
2023/08/08 22:06:19;;;;;;;2.95;1.30;;;;;;;19.90;62.40;100599.44;10532507;28;20557;-73
2023/08/08 22:11:21;;;;;;;1.85;1.40;;;;;;;20.08;62.39;100603.66;10544833;28;20057;-73
2023/08/08 22:16:24;;;;;;;1.30;1.10;;;;;;;20.21;61.66;100601.72;10504196;28;20048;-73
2023/08/08 22:21:26;;;;;;;1.85;1.48;;;;;;;20.03;62.42;100608.66;10532324;28;20060;-73
2023/08/08 22:26:29;;;;;;;3.10;1.02;;;;;;;20.09;62.55;100619.22;10546293;28;20521;-73
2023/08/08 22:31:31;;;;;;;2.67;1.30;;;;;;;20.13;62.69;100620.19;10573613;28;20047;-74
2023/08/08 22:36:33;;;;;;;4.28;1.50;;;;;;;19.82;63.65;100628.22;10563390;28;20048;-73
2023/08/08 22:41:36;;;;;;;2.75;1.20;;;;;;;19.50;65.46;100630.63;10520588;28;20044;-73
2023/08/08 22:46:38;;;;;;;1.65;1.33;;;;;;;19.54;65.71;100637.16;10526985;28;20040;-74
2023/08/08 22:51:40;;;;;;;1.50;1.40;;;;;;;19.82;64.30;100642.16;10513811;28;20037;-74
2023/08/08 22:56:43;;;;;;;2.58;1.45;;;;;;;19.56;66.06;100629.28;10528735;28;20060;-73
2023/08/08 23:01:45;;;;;;;1.30;1.15;;;;;;;19.61;66.19;100635.78;10498518;28;20060;-74
2023/08/08 23:06:47;;;;;;;1.67;1.27;;;;;;;19.49;66.63;100629.00;10471166;28;20048;-74
2023/08/08 23:11:50;;;;;;;3.50;1.20;;;;;;;19.33;67.53;100635.53;10495497;28;20493;-73
2023/08/08 23:16:54;;;;;;;2.88;1.50;;;;;;;19.54;67.10;100642.72;10524746;28;20059;-74
2023/08/08 23:21:57;;;;;;;6.53;2.00;;;;;;;19.65;66.67;100645.09;10488181;28;20044;-73